Brownton, Minnesota
Current Conditions -  °F | °C
As of 6:53 AM on Tuesday 21 Oct 2014 (Local Time) from KHCD Reporting Station
Clear Clear  
Wind Chill: 38°   Ceiling: Unl
Heat Index: 38°   Visibility: 10mi
Dew Point: 37°   Wind: 3mph
Humidity: 95%   Direction: 80°E
Pressure: 30.16"   Gusts: NA
Location:  44.73°N, 94.35°W
Report Text: KHCD 211153Z AUTO 08003KT 10SM CLR 03/03 A3016 RMK AO2 T00340027 10053 20023
Loading
Personal Weather Stations






























Interactive Weather Map
Tropical Storm Tracking
New forecast layout! Learn more

10-Day Weather Forecast

Advertisements
Track Severe Weather on mobile